Time;durP1;ratioP1;P1;durP2;ratioP2;P2;SDS_P1;SDS_P2;PMS_P1;PMS_P2;Temp;Humidity;BMP_temperature;BMP_pressure;BME280_temperature;BME280_humidity;BME280_pressure;Samples;Min_cycle;Max_cycle;Signal;HPM_P1;HPM_P2
2023/05/23 00:01:41;;;;;;;42.05;32.88;;;20.70;95.40;;;;;;5053682;28;20025;-50
2023/05/23 00:04:08;;;;;;;34.45;30.67;;;20.70;95.60;;;;;;5053967;28;20130;-50
2023/05/23 00:06:35;;;;;;;34.67;31.13;;;20.60;96.10;;;;;;5035610;28;20163;-46
2023/05/23 00:09:01;;;;;;;34.72;29.88;;;20.60;96.20;;;;;;5053515;28;20031;-45
2023/05/23 00:11:28;;;;;;;32.10;28.63;;;20.60;96.10;;;;;;5053790;28;20380;-45
2023/05/23 00:13:54;;;;;;;36.05;32.38;;;20.60;96.00;;;;;;5053692;28;20124;-46
2023/05/23 00:16:21;;;;;;;36.88;32.92;;;20.50;96.50;;;;;;5053277;28;20029;-45
2023/05/23 00:18:49;;;;;;;36.28;31.38;;;20.50;96.50;;;;;;5053194;28;20036;-45
2023/05/23 00:21:15;;;;;;;37.45;31.58;;;20.50;96.80;;;;;;5035401;28;20035;-47
2023/05/23 00:23:42;;;;;;;36.28;30.23;;;20.50;96.70;;;;;;5053120;28;20514;-47
2023/05/23 00:26:08;;;;;;;41.40;30.48;;;20.40;96.50;;;;;;5053377;28;20032;-46
2023/05/23 00:28:34;;;;;;;35.92;31.58;;;20.40;96.60;;;;;;5053256;28;20044;-48
2023/05/23 00:31:00;;;;;;;37.80;31.33;;;20.40;96.70;;;;;;5053069;28;20033;-48
2023/05/23 00:33:25;;;;;;;34.42;30.73;;;20.40;96.80;;;;;;5053453;28;20033;-45
2023/05/23 00:35:51;;;;;;;37.13;32.88;;;20.30;96.60;;;;;;5050860;28;20037;-45
2023/05/23 00:38:18;;;;;;;37.92;33.88;;;20.30;96.80;;;;;;5032268;28;20034;-46
2023/05/23 00:40:47;;;;;;;37.03;33.10;;;20.30;96.90;;;;;;5042860;28;20425;-47
2023/05/23 00:43:13;;;;;;;37.30;31.63;;;20.20;96.90;;;;;;5053451;28;20402;-47
2023/05/23 00:45:38;;;;;;;37.95;32.47;;;20.10;97.10;;;;;;5053801;28;20017;-48
2023/05/23 00:48:06;;;;;;;40.80;33.72;;;20.10;97.60;;;;;;5053374;28;20545;-46
2023/05/23 00:50:32;;;;;;;39.63;32.10;;;20.10;97.80;;;;;;5068834;28;20032;-45
2023/05/23 00:53:00;;;;;;;39.75;33.08;;;20.00;97.70;;;;;;5043622;28;20022;-45
2023/05/23 00:55:27;;;;;;;37.80;33.13;;;20.00;97.70;;;;;;5033526;28;20103;-46
2023/05/23 00:57:55;;;;;;;;;;;19.90;97.80;;;;;;5033568;28;20030;-47
2023/05/23 01:00:23;;;;;;;39.33;32.25;;;19.90;98.10;;;;;;5033364;28;20375;-48
2023/05/23 01:02:52;;;;;;;40.15;32.45;;;19.80;97.90;;;;;;5033151;28;20025;-48
2023/05/23 01:05:21;;;;;;;36.63;31.58;;;19.70;98.10;;;;;;5036643;28;20104;-48
2023/05/23 01:07:48;;;;;;;37.53;31.80;;;19.60;98.30;;;;;;5052448;28;20029;-50
2023/05/23 01:10:34;;;;;;;36.80;32.50;;;19.60;98.40;;;;;;5052375;28;20055;-45
2023/05/23 01:13:16;;;;;;;37.60;33.50;;;19.70;98.50;;;;;;5041715;28;20122;-48
2023/05/23 01:16:03;;;;;;;36.58;31.35;;;19.60;99.00;;;;;;5052371;28;20029;-47
2023/05/23 01:18:45;;;;;;;38.83;32.00;;;19.60;98.40;;;;;;5037399;28;20201;-45
2023/05/23 01:21:16;;;;;;;39.05;32.03;;;19.60;98.40;;;;;;5052156;28;20057;-46
2023/05/23 01:24:03;;;;;;;38.80;32.42;;;19.60;99.00;;;;;;5052619;28;20391;-46
2023/05/23 01:26:44;;;;;;;38.60;32.70;;;19.60;98.80;;;;;;5049955;28;20044;-45
2023/05/23 01:29:12;;;;;;;39.55;32.45;;;19.60;98.80;;;;;;5051744;28;20033;-46
2023/05/23 01:31:48;;;;;;;37.60;33.15;;;19.60;99.20;;;;;;5051549;28;20028;-46
2023/05/23 01:34:17;;;;;;;41.22;33.28;;;19.60;99.40;;;;;;5051659;28;20048;-46
2023/05/23 01:36:43;;;;;;;38.45;32.25;;;19.50;99.20;;;;;;5051680;28;20037;-46
2023/05/23 01:39:10;;;;;;;42.37;33.13;;;19.50;99.30;;;;;;5052094;28;20072;-45
2023/05/23 01:41:36;;;;;;;41.67;32.35;;;19.50;99.40;;;;;;5051906;28;20090;-45
2023/05/23 01:44:02;;;;;;;38.05;33.60;;;19.40;99.40;;;;;;5052112;28;20028;-45
2023/05/23 01:46:29;;;;;;;42.42;33.88;;;19.40;99.60;;;;;;5051756;28;20017;-45
2023/05/23 01:48:57;;;;;;;42.33;32.10;;;19.40;99.80;;;;;;5051652;28;20029;-48
2023/05/23 01:51:23;;;;;;;40.60;30.27;;;19.30;99.80;;;;;;5051647;28;20458;-45
2023/05/23 01:53:52;;;;;;;34.83;30.98;;;19.40;99.80;;;;;;5051886;28;20067;-46
2023/05/23 01:56:20;;;;;;;32.88;27.65;;;19.30;99.60;;;;;;5051228;28;20041;-48
2023/05/23 01:58:46;;;;;;;32.05;27.80;;;19.30;99.90;;;;;;5051662;28;20025;-46
2023/05/23 02:01:12;;;;;;;33.00;26.90;;;19.30;99.80;;;;;;5051636;28;20032;-47
2023/05/23 02:03:38;;;;;;;33.75;27.73;;;19.30;99.90;;;;;;5038586;28;20376;-49
2023/05/23 02:06:04;;;;;;;34.65;27.00;;;19.20;99.90;;;;;;5032367;28;20032;-47
2023/05/23 02:08:29;;;;;;;35.08;27.33;;;19.20;99.80;;;;;;5051780;28;20033;-45
2023/05/23 02:10:55;;;;;;;29.50;26.08;;;19.10;99.70;;;;;;5051959;28;20025;-45
2023/05/23 02:13:21;;;;;;;29.35;26.20;;;19.10;99.70;;;;;;5051997;28;20029;-45
2023/05/23 02:15:46;;;;;;;29.25;23.75;;;19.10;99.90;;;;;;5051829;28;20029;-48
2023/05/23 02:18:12;;;;;;;31.85;24.17;;;19.00;99.90;;;;;;5051549;28;20083;-50
2023/05/23 02:20:38;;;;;;;27.10;23.10;;;19.00;99.70;;;;;;5051779;28;20021;-48
2023/05/23 02:23:04;;;;;;;24.75;21.60;;;18.90;99.90;;;;;;5051757;28;20436;-49
2023/05/23 02:25:30;;;;;;;22.77;20.38;;;18.90;99.90;;;;;;5051755;28;20045;-50
2023/05/23 02:27:56;;;;;;;22.80;20.40;;;18.90;99.90;;;;;;5033681;28;20407;-49
2023/05/23 02:30:21;;;;;;;23.88;19.92;;;18.80;99.90;;;;;;5050780;28;20438;-49
2023/05/23 02:32:47;;;;;;;22.25;19.85;;;18.80;99.90;;;;;;5051495;28;20449;-50
2023/05/23 02:35:13;;;;;;;21.85;18.67;;;18.80;99.90;;;;;;5051767;28;20059;-50
2023/05/23 02:37:38;;;;;;;22.95;18.42;;;18.80;99.80;;;;;;5050829;28;20043;-50
2023/05/23 02:40:06;;;;;;;19.88;17.85;;;18.70;99.50;;;;;;5050952;28;20487;-48
2023/05/23 02:42:32;;;;;;;21.15;17.83;;;18.70;99.40;;;;;;5050048;28;20024;-48
2023/05/23 02:44:58;;;;;;;23.40;18.13;;;18.70;99.40;;;;;;5050938;28;20148;-48
2023/05/23 02:47:24;;;;;;;22.75;19.90;;;18.60;99.40;;;;;;5050598;28;20029;-48
2023/05/23 02:49:50;;;;;;;23.23;19.95;;;18.50;99.50;;;;;;5050543;28;20021;-48
2023/05/23 02:52:16;;;;;;;22.00;18.05;;;18.50;99.70;;;;;;5038132;28;20017;-48
2023/05/23 02:54:42;;;;;;;23.10;19.40;;;18.50;99.80;;;;;;5050472;28;20028;-48
2023/05/23 02:57:08;;;;;;;25.08;19.45;;;18.50;99.90;;;;;;5050904;28;20025;-50
2023/05/23 02:59:33;;;;;;;23.70;19.08;;;18.50;99.90;;;;;;5051261;28;20087;-47
2023/05/23 03:01:59;;;;;;;20.88;18.67;;;18.40;99.90;;;;;;5050586;28;20388;-48
2023/05/23 03:04:26;;;;;;;24.40;19.83;;;18.40;99.90;;;;;;5050403;28;20493;-47
2023/05/23 03:06:53;;;;;;;24.85;17.98;;;18.40;99.90;;;;;;5051022;28;20561;-50
2023/05/23 03:09:19;;;;;;;23.77;18.83;;;18.30;99.90;;;;;;5050766;28;20414;-48
2023/05/23 03:11:44;;;;;;;27.35;19.17;;;18.30;99.90;;;;;;5047113;28;20021;-48
2023/05/23 03:14:10;;;;;;;21.25;18.98;;;18.20;99.90;;;;;;5047984;28;20134;-49
2023/05/23 03:16:36;;;;;;;27.95;17.88;;;18.20;99.90;;;;;;5049769;28;20025;-48
2023/05/23 03:19:03;;;;;;;20.52;18.17;;;18.10;99.90;;;;;;5066479;28;20064;-47
2023/05/23 03:21:30;;;;;;;26.05;16.25;;;18.20;99.90;;;;;;5038608;28;20072;-47
2023/05/23 03:23:56;;;;;;;20.92;17.75;;;18.20;99.90;;;;;;5046591;28;20048;-48
2023/05/23 03:26:21;;;;;;;22.02;18.63;;;18.10;99.90;;;;;;5049387;28;20448;-50
2023/05/23 03:28:48;;;;;;;23.40;18.55;;;18.10;99.90;;;;;;5050521;28;20029;-48
2023/05/23 03:31:14;;;;;;;;;;;18.10;99.90;;;;;;5051042;28;20387;-50
2023/05/23 03:33:40;;;;;;;21.27;19.08;;;18.00;99.90;;;;;;5050653;28;19916;-48
2023/05/23 03:36:06;;;;;;;28.25;21.30;;;18.00;99.90;;;;;;5032978;28;20033;-48
2023/05/23 03:38:31;;;;;;;25.48;18.35;;;18.00;99.90;;;;;;5049690;28;20037;-49
2023/05/23 03:40:57;;;;;;;25.23;19.38;;;18.00;99.90;;;;;;5050965;28;20021;-50
2023/05/23 03:43:23;;;;;;;24.73;19.40;;;18.00;99.90;;;;;;5050733;28;20114;-49
2023/05/23 03:45:48;;;;;;;28.85;20.05;;;18.00;99.90;;;;;;5050302;28;20025;-50
2023/05/23 03:48:14;;;;;;;33.05;20.23;;;18.00;99.90;;;;;;5047408;28;20025;-48
2023/05/23 03:50:40;;;;;;;20.67;18.45;;;18.00;99.90;;;;;;5049931;28;20033;-58
2023/05/23 03:53:06;;;;;;;30.73;20.05;;;18.00;99.90;;;;;;5040856;28;20028;-52
2023/05/23 03:55:32;;;;;;;28.98;21.63;;;17.90;99.90;;;;;;5050423;28;20383;-48
2023/05/23 03:57:57;;;;;;;29.75;20.70;;;17.90;99.90;;;;;;5033629;28;20029;-50
2023/05/23 04:00:23;;;;;;;31.92;22.40;;;17.90;99.90;;;;;;5054085;28;20025;-47
2023/05/23 04:02:50;;;;;;;27.50;20.85;;;17.90;99.90;;;;;;5054421;28;20399;-47
2023/05/23 04:05:16;;;;;;;;;;;17.90;99.90;;;;;;5054666;28;20036;-50
2023/05/23 04:07:42;;;;;;;27.65;21.20;;;17.90;99.90;;;;;;5054187;28;19905;-51
2023/05/23 04:10:08;;;;;;;33.08;21.17;;;17.90;99.90;;;;;;5036457;28;20025;-50
2023/05/23 04:12:35;;;;;;;28.10;21.77;;;17.90;99.90;;;;;;5036406;28;20025;-48
2023/05/23 04:15:01;;;;;;;27.35;22.35;;;17.90;99.90;;;;;;5054290;28;20025;-48
2023/05/23 04:17:28;;;;;;;26.20;21.87;;;17.80;99.90;;;;;;5054188;28;20387;-50
2023/05/23 04:19:54;;;;;;;28.23;21.40;;;17.80;99.90;;;;;;5054396;28;20028;-47
2023/05/23 04:22:19;;;;;;;26.65;21.65;;;17.80;99.90;;;;;;5054134;28;20017;-48
2023/05/23 04:24:45;;;;;;;27.30;21.45;;;17.80;99.90;;;;;;5054014;28;20052;-50
2023/05/23 04:27:12;;;;;;;31.45;23.58;;;17.90;99.90;;;;;;5053689;28;20096;-53
2023/05/23 04:29:38;;;;;;;27.85;22.30;;;17.90;99.90;;;;;;5053938;28;20032;-51
2023/05/23 04:32:05;;;;;;;27.90;22.23;;;17.80;99.90;;;;;;5053665;28;20090;-52
2023/05/23 04:34:32;;;;;;;29.00;23.08;;;17.90;99.90;;;;;;5053813;28;20116;-47
2023/05/23 04:37:01;;;;;;;27.50;21.88;;;17.90;99.90;;;;;;5053978;28;20051;-47
2023/05/23 04:39:27;;;;;;;30.90;23.25;;;17.90;99.90;;;;;;5035774;28;20096;-47
2023/05/23 04:41:53;;;;;;;32.38;23.60;;;17.90;99.90;;;;;;5035600;28;20483;-47
2023/05/23 04:44:19;;;;;;;25.30;22.52;;;17.90;99.90;;;;;;5053673;28;20029;-49
2023/05/23 04:46:45;;;;;;;26.88;21.67;;;18.00;99.90;;;;;;5053587;28;20394;-48
2023/05/23 04:49:11;;;;;;;26.52;22.27;;;18.00;99.90;;;;;;5053388;28;20024;-48
2023/05/23 04:51:38;;;;;;;30.75;23.23;;;18.00;99.90;;;;;;5053271;28;20053;-48
2023/05/23 04:54:04;;;;;;;25.65;22.33;;;18.00;99.90;;;;;;5053493;28;20613;-48
2023/05/23 04:56:30;;;;;;;25.63;22.95;;;18.00;99.90;;;;;;5035506;28;20051;-47
2023/05/23 04:58:56;;;;;;;25.40;22.20;;;18.00;99.90;;;;;;5053122;28;20041;-49
2023/05/23 05:01:25;;;;;;;31.65;23.42;;;18.00;99.90;;;;;;5053742;28;20126;-49
2023/05/23 05:03:51;;;;;;;26.67;23.85;;;18.00;99.90;;;;;;5053374;28;20021;-50
2023/05/23 05:06:17;;;;;;;28.33;25.23;;;17.90;99.90;;;;;;5053193;28;20032;-51
2023/05/23 05:08:43;;;;;;;30.98;26.38;;;17.90;99.90;;;;;;5052878;28;20021;-51
2023/05/23 05:11:10;;;;;;;36.22;24.98;;;17.90;99.90;;;;;;5053027;28;20028;-48
2023/05/23 05:13:35;;;;;;;33.63;26.70;;;17.90;99.90;;;;;;5053119;28;20043;-47
2023/05/23 05:16:01;;;;;;;30.83;26.25;;;18.00;99.90;;;;;;5035180;28;20539;-49
2023/05/23 05:18:27;;;;;;;32.80;28.30;;;18.10;99.90;;;;;;5052734;28;20028;-49
2023/05/23 05:20:53;;;;;;;58.35;28.92;;;18.10;99.90;;;;;;5052932;28;20100;-49
2023/05/23 05:23:19;;;;;;;32.35;28.52;;;18.10;99.90;;;;;;5052876;28;20108;-48
2023/05/23 05:25:45;;;;;;;40.93;30.83;;;18.10;99.90;;;;;;5053198;28;20059;-47
2023/05/23 05:28:11;;;;;;;39.58;30.70;;;18.20;99.90;;;;;;5052758;28;20460;-47
2023/05/23 05:30:37;;;;;;;36.15;30.58;;;18.20;99.90;;;;;;5052555;28;20032;-47
2023/05/23 05:33:06;;;;;;;38.60;30.00;;;18.30;99.90;;;;;;5053445;28;20049;-45
2023/05/23 05:35:32;;;;;;;38.88;29.80;;;18.30;99.90;;;;;;5052788;28;20037;-45
2023/05/23 05:37:59;;;;;;;35.03;29.17;;;18.30;99.90;;;;;;5052473;28;20032;-46
2023/05/23 05:40:25;;;;;;;32.15;28.67;;;18.40;99.90;;;;;;5049716;28;20113;-45
2023/05/23 05:42:50;;;;;;;38.10;29.73;;;18.40;99.90;;;;;;5052527;28;20107;-45
2023/05/23 05:45:16;;;;;;;34.92;28.60;;;18.40;99.90;;;;;;5051215;28;20021;-45
2023/05/23 05:47:43;;;;;;;35.92;30.55;;;18.40;99.90;;;;;;5051028;28;20063;-47
2023/05/23 05:50:09;;;;;;;30.73;26.90;;;18.50;99.90;;;;;;5052425;28;20537;-45
2023/05/23 05:52:38;;;;;;;32.93;28.03;;;18.60;99.90;;;;;;5051883;28;20025;-45
2023/05/23 05:55:11;;;;;;;33.15;29.15;;;18.70;99.90;;;;;;5032399;28;20264;-45
2023/05/23 05:57:40;;;;;;;32.92;27.83;;;18.70;99.90;;;;;;5049384;28;20063;-45
2023/05/23 06:00:12;;;;;;;32.45;27.60;;;18.70;99.90;;;;;;5052327;28;20425;-46
2023/05/23 06:02:38;;;;;;;29.92;26.83;;;18.80;99.90;;;;;;5051543;28;20396;-44
2023/05/23 06:05:06;;;;;;;37.13;28.05;;;18.90;99.90;;;;;;5052176;28;20104;-46
2023/05/23 06:07:33;;;;;;;35.40;26.77;;;18.90;99.90;;;;;;5051446;28;20159;-46
2023/05/23 06:09:59;;;;;;;30.27;27.05;;;19.00;99.90;;;;;;5052017;28;20032;-45
2023/05/23 06:12:24;;;;;;;32.22;27.23;;;19.10;99.90;;;;;;5051383;28;20017;-47
2023/05/23 06:14:50;;;;;;;29.77;26.45;;;19.20;99.90;;;;;;5052085;28;20395;-44
2023/05/23 06:17:16;;;;;;;30.75;25.30;;;19.30;99.90;;;;;;5051027;28;20021;-49
2023/05/23 06:19:41;;;;;;;31.88;27.27;;;19.30;99.90;;;;;;5051783;28;20033;-45
2023/05/23 06:22:07;;;;;;;31.33;28.02;;;19.30;99.90;;;;;;5050950;28;20151;-45
2023/05/23 06:24:33;;;;;;;30.45;25.48;;;19.40;99.90;;;;;;5051846;28;20021;-45
2023/05/23 06:26:58;;;;;;;30.73;25.85;;;19.30;99.90;;;;;;5051293;28;20096;-47
2023/05/23 06:29:24;;;;;;;29.08;25.40;;;19.40;99.90;;;;;;5052000;28;20478;-48
2023/05/23 06:31:50;;;;;;;31.52;25.45;;;19.50;99.90;;;;;;5051050;28;20422;-45
2023/05/23 06:34:16;;;;;;;29.45;24.42;;;19.60;99.90;;;;;;5051687;28;20036;-45
2023/05/23 06:36:41;;;;;;;30.20;23.38;;;19.70;99.90;;;;;;5033489;28;20075;-45
2023/05/23 06:39:08;;;;;;;28.02;24.88;;;19.70;99.90;;;;;;5051140;28;20033;-45
2023/05/23 06:41:35;;;;;;;31.67;25.50;;;19.80;99.90;;;;;;5050973;28;20017;-45
2023/05/23 06:44:00;;;;;;;26.92;21.65;;;19.90;99.90;;;;;;5051707;28;20057;-45
2023/05/23 06:46:26;;;;;;;24.48;21.35;;;20.00;99.90;;;;;;5051050;28;20412;-46
2023/05/23 06:48:52;;;;;;;25.67;20.77;;;20.00;99.90;;;;;;5051237;28;20032;-45
2023/05/23 06:51:17;;;;;;;22.02;19.58;;;20.00;99.90;;;;;;5051049;28;20108;-45
2023/05/23 06:53:43;;;;;;;23.60;18.35;;;20.10;99.90;;;;;;5051445;28;20529;-45
2023/05/23 06:56:09;;;;;;;22.75;20.35;;;20.20;99.90;;;;;;5051032;28;20021;-44
2023/05/23 06:58:34;;;;;;;23.77;20.92;;;20.20;99.90;;;;;;5051203;28;20599;-45
2023/05/23 07:01:00;;;;;;;24.17;18.77;;;20.30;99.90;;;;;;5051058;28;20465;-47
2023/05/23 07:03:26;;;;;;;21.58;19.15;;;20.40;99.90;;;;;;5051418;28;20025;-45
2023/05/23 07:05:52;;;;;;;20.95;18.55;;;20.50;99.90;;;;;;5051016;28;20471;-45
2023/05/23 07:08:17;;;;;;;22.63;17.13;;;20.60;99.90;;;;;;5051126;28;20021;-50
2023/05/23 07:10:43;;;;;;;19.48;17.10;;;20.60;99.90;;;;;;5032989;28;20091;-48
2023/05/23 07:13:09;;;;;;;25.40;17.45;;;20.70;99.90;;;;;;5049141;28;20036;-44
2023/05/23 07:15:35;;;;;;;20.05;17.02;;;20.80;99.90;;;;;;5051103;28;20182;-44
2023/05/23 07:18:01;;;;;;;24.85;17.77;;;20.90;99.90;;;;;;5032946;28;20059;-45
2023/05/23 07:20:26;;;;;;;20.95;17.67;;;21.00;99.90;;;;;;5051295;28;20096;-45
2023/05/23 07:22:52;;;;;;;22.45;18.00;;;21.00;99.90;;;;;;5050773;28;20075;-48
2023/05/23 07:25:18;;;;;;;19.52;16.98;;;21.10;99.90;;;;;;5051273;28;20535;-49
2023/05/23 07:27:43;;;;;;;19.70;17.65;;;21.10;99.10;;;;;;5050539;28;20111;-51
2023/05/23 07:30:09;;;;;;;23.17;16.98;;;21.20;99.80;;;;;;5051265;28;20094;-48
2023/05/23 07:32:35;;;;;;;20.45;17.35;;;21.20;99.30;;;;;;5050793;28;20544;-50
2023/05/23 07:35:01;;;;;;;21.20;17.27;;;21.30;99.70;;;;;;5035204;28;20377;-49
2023/05/23 07:37:27;;;;;;;19.85;17.35;;;21.40;99.60;;;;;;5050673;28;20262;-51
2023/05/23 07:39:53;;;;;;;21.80;17.83;;;21.50;99.50;;;;;;5054911;28;20029;-50
2023/05/23 07:42:18;;;;;;;19.52;17.48;;;21.50;99.00;;;;;;5054526;28;20099;-50
2023/05/23 07:44:44;;;;;;;24.60;18.63;;;21.60;98.60;;;;;;5054902;28;20467;-51
2023/05/23 07:47:10;;;;;;;25.92;17.70;;;21.70;98.10;;;;;;5053925;28;20099;-51
2023/05/23 07:49:35;;;;;;;23.47;18.57;;;21.70;97.60;;;;;;5054954;28;20026;-55
2023/05/23 07:52:01;;;;;;;22.48;18.15;;;21.70;98.20;;;;;;5054300;28;20054;-50
2023/05/23 07:54:27;;;;;;;26.40;17.13;;;21.80;97.60;;;;;;5054551;28;20025;-51
2023/05/23 07:56:53;;;;;;;19.63;17.50;;;21.90;97.90;;;;;;5054190;28;20033;-50
2023/05/23 07:59:19;;;;;;;22.25;16.80;;;22.00;98.10;;;;;;5054298;28;20024;-48
2023/05/23 08:01:45;;;;;;;18.33;16.52;;;22.00;96.10;;;;;;5053926;28;20028;-48
2023/05/23 08:04:10;;;;;;;21.45;16.70;;;22.10;95.40;;;;;;5054567;28;20017;-45
2023/05/23 08:06:36;;;;;;;20.10;17.40;;;22.20;95.60;;;;;;5054485;28;20021;-55
2023/05/23 08:09:05;;;;;;;18.40;16.60;;;22.30;96.10;;;;;;5054180;28;20021;-52
2023/05/23 08:11:31;;;;;;;21.42;17.17;;;22.40;95.80;;;;;;5054357;28;20395;-52
2023/05/23 08:13:58;;;;;;;19.90;15.90;;;22.50;95.50;;;;;;5053661;28;20021;-50
2023/05/23 08:16:25;;;;;;;21.80;16.92;;;22.50;94.60;;;;;;5035492;28;20033;-53
2023/05/23 08:18:51;;;;;;;30.17;18.55;;;22.60;94.00;;;;;;5053927;28;20399;-50
2023/05/23 08:21:16;;;;;;;22.53;16.90;;;22.60;93.00;;;;;;5054103;28;20023;-53
2023/05/23 08:23:42;;;;;;;23.48;16.80;;;22.70;93.00;;;;;;5054066;28;20408;-50
2023/05/23 08:26:08;;;;;;;17.05;14.90;;;22.80;93.20;;;;;;5036453;28;20040;-50
2023/05/23 08:28:33;;;;;;;23.20;15.80;;;22.80;90.50;;;;;;5036207;28;20447;-51
2023/05/23 08:30:59;;;;;;;19.07;16.87;;;22.80;87.20;;;;;;5053716;28;20040;-48
2023/05/23 08:33:25;;;;;;;17.02;14.75;;;22.90;85.90;;;;;;5036053;28;20029;-48
2023/05/23 08:35:51;;;;;;;20.07;16.83;;;22.90;85.00;;;;;;5053844;28;20044;-52
2023/05/23 08:38:20;;;;;;;20.17;17.53;;;23.00;87.80;;;;;;5053514;28;20067;-51
2023/05/23 08:40:53;;;;;;;19.23;17.13;;;23.00;88.30;;;;;;5053706;28;20768;-50
2023/05/23 08:43:19;;;;;;;19.67;17.73;;;23.00;89.10;;;;;;5035409;28;20407;-49
2023/05/23 08:45:45;;;;;;;21.00;17.27;;;23.10;90.00;;;;;;5053585;28;20017;-53
2023/05/23 08:48:14;;;;;;;19.60;16.88;;;23.10;90.60;;;;;;5035520;28;20021;-50
2023/05/23 08:50:43;;;;;;;18.73;15.80;;;23.30;90.60;;;;;;5053288;28;20040;-49
2023/05/23 08:53:18;;;;;;;19.35;15.27;;;23.30;87.10;;;;;;5053550;28;20482;-53
2023/05/23 08:55:50;;;;;;;20.05;16.55;;;23.40;87.50;;;;;;5053488;28;20104;-51
2023/05/23 08:58:19;;;;;;;20.63;16.52;;;23.50;85.60;;;;;;5053066;28;20514;-52
2023/05/23 09:00:46;;;;;;;25.25;17.23;;;23.50;84.50;;;;;;5053374;28;20068;-50
2023/05/23 09:03:12;;;;;;;;;;;23.60;85.50;;;;;;5053734;28;20025;-51
2023/05/23 09:05:39;;;;;;;19.55;16.08;;;23.70;80.80;;;;;;5053300;28;19955;-49
2023/05/23 09:08:04;;;;;;;23.30;16.83;;;23.70;83.20;;;;;;5053134;28;20025;-52
2023/05/23 09:10:30;;;;;;;21.03;17.07;;;23.70;83.50;;;;;;5053238;28;20075;-54
2023/05/23 09:12:57;;;;;;;20.27;16.57;;;23.80;84.10;;;;;;5053192;28;20032;-52
2023/05/23 09:15:23;;;;;;;16.13;14.40;;;23.90;82.90;;;;;;5053139;28;20437;-50
2023/05/23 09:17:49;;;;;;;18.90;16.60;;;23.90;79.90;;;;;;5034902;28;20028;-50
2023/05/23 09:20:17;;;;;;;20.80;17.67;;;24.00;81.00;;;;;;5053051;28;20025;-49
2023/05/23 09:22:47;;;;;;;20.25;17.38;;;24.10;80.50;;;;;;5052907;28;20092;-48
2023/05/23 09:25:13;;;;;;;25.00;18.10;;;24.10;79.80;;;;;;5052881;28;20025;-48
2023/05/23 09:27:39;;;;;;;18.15;15.73;;;24.20;79.00;;;;;;5052731;28;20023;-51
2023/05/23 09:30:06;;;;;;;19.27;15.53;;;24.30;80.20;;;;;;5034930;28;20025;-48
2023/05/23 09:32:32;;;;;;;19.77;17.20;;;24.40;79.60;;;;;;5034644;28;20503;-50
2023/05/23 09:35:03;;;;;;;21.60;16.13;;;24.40;77.10;;;;;;5052747;28;20078;-52
2023/05/23 09:37:36;;;;;;;19.55;15.45;;;24.40;76.30;;;;;;5052548;28;20024;-49
2023/05/23 09:40:10;;;;;;;21.10;16.98;;;24.40;77.10;;;;;;5052567;28;20384;-52
2023/05/23 09:42:44;;;;;;;19.35;16.67;;;24.50;73.80;;;;;;5052470;28;20021;-50
2023/05/23 09:45:14;;;;;;;22.05;17.40;;;24.50;75.50;;;;;;5052600;28;20032;-53
2023/05/23 09:47:52;;;;;;;20.92;15.90;;;24.50;74.80;;;;;;5052341;28;20024;-48
2023/05/23 09:50:19;;;;;;;19.27;16.25;;;24.60;75.70;;;;;;5052377;28;20025;-48
2023/05/23 09:52:45;;;;;;;21.42;17.48;;;24.60;74.20;;;;;;5052384;28;20017;-52
2023/05/23 09:55:11;;;;;;;;;;;24.60;74.10;;;;;;5034286;28;20051;-49
2023/05/23 09:57:44;;;;;;;24.80;18.00;;;24.60;72.90;;;;;;5034058;28;19908;-54
2023/05/23 10:00:13;;;;;;;19.95;15.45;;;24.60;73.40;;;;;;5034448;28;20033;-49
2023/05/23 10:03:04;;;;;;;21.27;16.63;;;24.70;73.60;;;;;;5052034;28;20368;-50
2023/05/23 10:05:35;;;;;;;20.80;16.27;;;24.80;73.40;;;;;;5052229;28;20086;-50
2023/05/23 10:08:09;;;;;;;20.70;16.30;;;24.90;73.20;;;;;;5051732;28;20100;-52
2023/05/23 10:10:56;;;;;;;20.58;16.58;;;25.00;72.70;;;;;;5050332;28;20457;-50
2023/05/23 10:13:26;;;;;;;24.23;18.10;;;25.20;72.90;;;;;;5051003;28;20032;-48
2023/05/23 10:16:04;;;;;;;21.27;17.20;;;25.30;72.10;;;;;;5052023;28;20060;-49
2023/05/23 10:18:36;;;;;;;22.27;18.38;;;25.40;69.90;;;;;;5051735;28;20029;-51
2023/05/23 10:21:08;;;;;;;21.60;16.65;;;25.30;70.50;;;;;;5052038;28;20028;-49
2023/05/23 10:23:35;;;;;;;23.77;18.27;;;25.40;71.70;;;;;;5051905;28;20032;-48
2023/05/23 10:26:03;;;;;;;18.58;16.58;;;25.40;72.30;;;;;;5051561;28;20028;-48
2023/05/23 10:28:30;;;;;;;23.25;17.83;;;25.30;72.00;;;;;;5033810;28;20487;-50
2023/05/23 10:30:56;;;;;;;19.15;17.23;;;25.30;72.00;;;;;;5050325;28;20032;-52
2023/05/23 10:33:23;;;;;;;18.88;15.45;;;25.30;71.70;;;;;;5033742;28;20402;-50
2023/05/23 10:35:49;;;;;;;;;;;25.40;71.60;;;;;;5051625;28;20035;-47
2023/05/23 10:38:17;;;;;;;21.30;15.35;;;25.50;73.10;;;;;;5051141;28;19908;-48
2023/05/23 10:40:56;;;;;;;19.42;15.98;;;25.60;73.70;;;;;;5050157;28;20039;-53
2023/05/23 10:43:46;;;;;;;17.48;15.77;;;25.80;70.30;;;;;;5033210;28;20032;-47
2023/05/23 10:46:14;;;;;;;15.85;12.68;;;25.90;70.40;;;;;;5050558;28;20100;-49
2023/05/23 10:48:42;;;;;;;21.73;14.98;;;25.90;67.30;;;;;;5032923;28;20029;-48
2023/05/23 10:51:09;;;;;;;22.35;14.98;;;26.00;68.10;;;;;;5050684;28;20052;-48
2023/05/23 10:53:44;;;;;;;17.48;13.93;;;26.10;66.90;;;;;;5051145;28;20051;-51
2023/05/23 10:56:25;;;;;;;93.03;75.85;;;26.20;64.90;;;;;;5032890;28;20402;-48
2023/05/23 10:58:55;;;;;;;1286.65;603.22;;;26.30;64.80;;;;;;5043367;28;20063;-48
2023/05/23 11:01:22;;;;;;;27.92;25.10;;;26.40;66.40;;;;;;5049801;28;20025;-50
2023/05/23 11:03:52;;;;;;;16.63;13.82;;;26.40;65.10;;;;;;5050706;28;20017;-49
2023/05/23 11:06:37;;;;;;;17.88;12.93;;;26.40;65.90;;;;;;5050473;28;20040;-48
2023/05/23 11:09:20;;;;;;;18.38;13.30;;;26.50;66.90;;;;;;5055061;28;20033;-51
2023/05/23 11:12:06;;;;;;;21.10;13.55;;;26.60;65.70;;;;;;5054579;28;20454;-49
2023/05/23 11:14:36;;;;;;;18.83;12.98;;;26.80;63.30;;;;;;5053786;28;20108;-51
2023/05/23 11:17:11;;;;;;;17.20;12.32;;;26.80;64.20;;;;;;5054426;28;20025;-49
2023/05/23 11:19:39;;;;;;;16.77;11.40;;;26.90;64.10;;;;;;5050750;28;20021;-50
2023/05/23 11:22:08;;;;;;;15.35;11.32;;;27.10;64.10;;;;;;5036691;28;20115;-45
2023/05/23 11:25:05;;;;;;;18.92;12.95;;;27.10;62.70;;;;;;5054820;28;20017;-48
2023/05/23 11:27:33;;;;;;;15.77;12.75;;;27.10;61.60;;;;;;5053153;28;20057;-48
2023/05/23 11:30:08;;;;;;;14.88;10.75;;;27.20;61.00;;;;;;5054913;28;20036;-45
2023/05/23 11:32:35;;;;;;;16.90;11.82;;;27.30;63.10;;;;;;5053739;28;20036;-47
2023/05/23 11:35:03;;;;;;;12.77;10.45;;;27.40;61.90;;;;;;5036989;28;20039;-50
2023/05/23 11:37:30;;;;;;;15.18;12.27;;;27.60;61.10;;;;;;5053789;28;20025;-45
2023/05/23 11:39:56;;;;;;;16.38;11.57;;;27.60;59.60;;;;;;5054604;28;20448;-44
2023/05/23 11:42:25;;;;;;;13.75;11.70;;;27.60;59.20;;;;;;5053697;28;20033;-46
2023/05/23 11:44:51;;;;;;;13.85;12.13;;;27.70;58.80;;;;;;5054655;28;20021;-48
2023/05/23 11:47:26;;;;;;;14.32;11.25;;;27.80;59.20;;;;;;5053326;28;20104;-54
2023/05/23 11:49:53;;;;;;;16.15;12.10;;;27.90;59.40;;;;;;5054477;28;20044;-53
2023/05/23 11:52:19;;;;;;;21.00;11.73;;;28.00;58.60;;;;;;5054303;28;20423;-50
2023/05/23 11:54:45;;;;;;;13.88;10.95;;;28.10;59.20;;;;;;5054409;28;20037;-52
2023/05/23 11:57:13;;;;;;;14.30;9.07;;;28.20;58.60;;;;;;5054268;28;20063;-52
2023/05/23 11:59:38;;;;;;;11.82;8.93;;;28.30;56.60;;;;;;5054193;28;20067;-55
2023/05/23 12:02:06;;;;;;;9.23;7.57;;;28.40;56.60;;;;;;5054081;28;20028;-52
2023/05/23 12:04:35;;;;;;;10.93;9.13;;;28.50;53.80;;;;;;5054053;28;20017;-53
2023/05/23 12:07:05;;;;;;;12.55;9.23;;;28.50;55.40;;;;;;5036236;28;20047;-56
2023/05/23 12:09:31;;;;;;;10.52;8.23;;;28.60;55.30;;;;;;5054272;28;20021;-55
2023/05/23 12:11:57;;;;;;;9.95;8.80;;;28.70;52.90;;;;;;5053973;28;20040;-54
2023/05/23 12:14:22;;;;;;;13.93;9.43;;;28.70;53.60;;;;;;5053775;28;20037;-54
2023/05/23 12:16:51;;;;;;;8.63;7.50;;;28.70;54.10;;;;;;5053890;28;20032;-57
2023/05/23 12:19:17;;;;;;;7.78;6.85;;;28.80;53.10;;;;;;5052803;28;20650;-55
2023/05/23 12:21:46;;;;;;;9.60;7.47;;;28.90;51.40;;;;;;5053968;28;20140;-55
2023/05/23 12:24:13;;;;;;;10.98;8.68;;;28.90;52.60;;;;;;5053737;28;20060;-54
2023/05/23 12:26:49;;;;;;;12.73;10.45;;;29.00;53.00;;;;;;5053864;28;20092;-57
2023/05/23 12:29:17;;;;;;;14.35;10.73;;;29.00;53.70;;;;;;5048951;28;20560;-55
2023/05/23 12:31:42;;;;;;;12.27;9.50;;;29.10;53.50;;;;;;5053258;28;20499;-57